52.7°F
Current conditions from King Hill
Updated every 5 minutes
 
  Thursday September 18, 2014

Station Historical Data
Daily Summary for May 20, 2012 Units:  English    Metric   Both
« Previous Day
Next Day »
Daily Weekly Monthly Yearly Custom
  High: Low: Average:
Temperature: 86.4 °F 51.8 °F 69.2 °F
Dew Point: 61.9 °F 46.6 °F 53.3 °F
Humidity: 84% 34% 60%
Wind Speed: 4.0mph 0.0mph 1.7mph
Wind Gust: 12.0mph - -
Wind- - SW
Pressure: 30.20 in 30.11 in -
Precipitation: 0.00 in    
Historical Graphs
 
 
Tabular Data for May 20, 2012
Time Temperature Dew Point Pressure Wind Wind Speed Wind Gust Humidity Daily Rainfall
00:04 55.9 °F 48.5 °F 30.13 in Calm     76% 0.00 in
00:09 55.8 °F 48.7 °F 30.13 in Calm     77% 0.00 in
00:14 55.7 °F 48.6 °F 30.13 in Calm     77% 0.00 in
00:19 55.5 °F 47.7 °F 30.13 in Calm     75% 0.00 in
00:25 55.6 °F 47.8 °F 30.13 in Calm     75% 0.00 in
00:29 55.6 °F 47.8 °F 30.13 in Calm     75% 0.00 in
00:34 55.5 °F 47.7 °F 30.12 in Calm     75% 0.00 in
00:39 55.4 °F 47.6 °F 30.12 in Calm     75% 0.00 in
00:45 55.6 °F 47.5 °F 30.12 in Calm     74% 0.00 in
00:54 55.3 °F 47.5 °F 30.13 in Calm     75% 0.00 in
00:59 55.1 °F 47.3 °F 30.13 in Calm     75% 0.00 in
01:04 54.9 °F 47.5 °F 30.12 in Calm     76% 0.00 in
01:09 54.7 °F 47.6 °F 30.12 in Calm     77% 0.00 in
01:14 54.5 °F 47.1 °F 30.12 in Calm     76% 0.00 in
01:19 54.4 °F 47.0 °F 30.13 in Calm     76% 0.00 in
01:25 54.4 °F 47.3 °F 30.12 in Calm     77% 0.00 in
01:30 54.3 °F 47.3 °F 30.13 in Calm     77% 0.00 in
01:34 54.1 °F 47.4 °F 30.13 in Calm     78% 0.00 in
01:39 54.0 °F 47.0 °F 30.12 in Calm     77% 0.00 in
01:44 53.9 °F 47.2 °F 30.12 in Calm     78% 0.00 in
01:49 53.7 °F 47.0 °F 30.12 in Calm     78% 0.00 in
01:54 53.8 °F 47.1 °F 30.12 in Calm     78% 0.00 in
01:59 53.8 °F 47.1 °F 30.12 in Calm     78% 0.00 in
02:04 53.7 °F 47.0 °F 30.13 in Calm     78% 0.00 in
02:09 53.7 °F 47.0 °F 30.12 in Calm     78% 0.00 in
02:14 53.6 °F 46.9 °F 30.12 in Calm     78% 0.00 in
02:20 53.5 °F 46.8 °F 30.13 in Calm     78% 0.00 in
02:24 53.5 °F 46.8 °F 30.13 in Calm     78% 0.00 in
02:30 53.6 °F 47.3 °F 30.13 in Calm     79% 0.00 in
02:35 53.7 °F 47.3 °F 30.13 in Calm     79% 0.00 in
02:39 53.6 °F 47.3 °F 30.13 in Calm     79% 0.00 in
02:45 53.4 °F 47.1 °F 30.13 in Calm     79% 0.00 in
02:54 53.1 °F 47.1 °F 30.13 in Calm     80% 0.00 in
02:59 53.0 °F 47.0 °F 30.13 in Calm     80% 0.00 in
03:04 52.8 °F 46.8 °F 30.13 in Calm     80% 0.00 in
03:09 52.6 °F 46.6 °F 30.13 in Calm     80% 0.00 in
03:15 52.6 °F 46.6 °F 30.13 in Calm     80% 0.00 in
03:20 52.6 °F 46.9 °F 30.13 in Calm     81% 0.00 in
03:29 52.6 °F 47.3 °F 30.13 in Calm     82% 0.00 in
03:34 52.7 °F 47.4 °F 30.14 in Calm     82% 0.00 in
03:39 52.7 °F 47.7 °F 30.14 in Calm     83% 0.00 in
03:44 52.7 °F 47.4 °F 30.14 in Calm     82% 0.00 in
03:50 52.4 °F 47.1 °F 30.14 in Calm     82% 0.00 in
03:54 52.4 °F 47.1 °F 30.14 in Calm     82% 0.00 in
03:59 52.2 °F 47.2 °F 30.14 in Calm     83% 0.00 in
04:04 52.4 °F 47.4 °F 30.14 in Calm     83% 0.00 in
04:09 52.8 °F 47.5 °F 30.14 in Calm     82% 0.00 in
04:14 52.7 °F 47.4 °F 30.15 in Calm     82% 0.00 in
04:19 52.8 °F 47.5 °F 30.14 in Calm     82% 0.00 in
04:25 52.6 °F 47.3 °F 30.15 in Calm     82% 0.00 in
04:29 52.6 °F 47.3 °F 30.15 in Calm     82% 0.00 in
04:34 52.5 °F 47.2 °F 30.15 in Calm     82% 0.00 in
04:39 52.4 °F 47.1 °F 30.15 in Calm     82% 0.00 in
04:44 52.2 °F 47.2 °F 30.15 in Calm     83% 0.00 in
04:49 52.2 °F 47.2 °F 30.15 in Calm     83% 0.00 in
04:54 52.7 °F 47.7 °F 30.15 in Calm     83% 0.00 in
04:59 53.0 °F 47.7 °F 30.15 in Calm     82% 0.00 in
05:04 52.7 °F 47.0 °F 30.15 in Calm     81% 0.00 in
05:09 53.0 °F 47.7 °F 30.15 in Calm     82% 0.00 in
05:14 53.0 °F 47.3 °F 30.15 in Calm     81% 0.00 in
05:19 52.7 °F 47.0 °F 30.15 in Calm     81% 0.00 in
05:24 52.2 °F 46.9 °F 30.15 in Calm     82% 0.00 in
05:29 51.9 °F 46.9 °F 30.16 in Calm     83% 0.00 in
05:35 51.8 °F 46.8 °F 30.16 in Calm     83% 0.00 in
05:39 51.8 °F 46.8 °F 30.16 in Calm     83% 0.00 in
05:45 51.8 °F 47.1 °F 30.16 in Calm     84% 0.00 in
05:54 52.3 °F 47.6 °F 30.16 in Calm     84% 0.00 in
05:59 52.2 °F 47.5 °F 30.16 in Calm     84% 0.00 in
06:04 52.1 °F 47.4 °F 30.16 in Calm     84% 0.00 in
06:09 52.2 °F 47.5 °F 30.16 in Calm     84% 0.00 in
06:14 52.3 °F 47.6 °F 30.16 in Calm     84% 0.00 in
06:19 52.5 °F 47.8 °F 30.16 in Calm     84% 0.00 in
06:24 52.7 °F 48.0 °F 30.16 in Calm     84% 0.00 in
06:29 53.0 °F 48.3 °F 30.17 in Calm     84% 0.00 in
06:34 53.1 °F 48.4 °F 30.17 in Calm     84% 0.00 in
06:39 53.5 °F 48.8 °F 30.17 in Calm     84% 0.00 in
06:44 53.9 °F 49.2 °F 30.17 in Calm     84% 0.00 in
06:49 54.1 °F 49.1 °F 30.17 in Calm     83% 0.00 in
06:54 54.7 °F 49.3 °F 30.17 in Calm     82% 0.00 in
06:59 55.4 °F 50.0 °F 30.17 in Calm     82% 0.00 in
07:04 55.9 °F 50.5 °F 30.17 in Calm     82% 0.00 in
07:09 56.5 °F 51.1 °F 30.18 in Calm     82% 0.00 in
07:14 57.2 °F 51.4 °F 30.18 in Calm     81% 0.00 in
07:19 58.0 °F 52.2 °F 30.18 in Calm     81% 0.00 in
07:24 58.6 °F 52.1 °F 30.18 in Calm     79% 0.00 in
07:29 59.4 °F 52.9 °F 30.18 in Calm     79% 0.00 in
07:34 60.3 °F 53.4 °F 30.18 in Calm     78% 0.00 in
07:39 60.7 °F 52.7 °F 30.18 in Calm     75% 0.00 in
07:44 61.3 °F 53.3 °F 30.18 in Calm     75% 0.00 in
07:49 62.1 °F 54.8 °F 30.18 in Calm     77% 0.00 in
07:54 63.0 °F 53.8 °F 30.18 in Calm     72% 0.00 in
07:59 63.9 °F 55.1 °F 30.18 in Calm     73% 0.00 in
08:04 65.1 °F 56.2 °F 30.19 in Calm     73% 0.00 in
08:09 66.3 °F 57.8 °F 30.19 in Calm     74% 0.00 in
08:14 67.1 °F 56.6 °F 30.19 in Calm     69% 0.00 in
08:19 67.4 °F 56.9 °F 30.19 in Calm     69% 0.00 in
08:24 67.8 °F 57.7 °F 30.19 in Calm     70% 0.00 in
08:29 68.0 °F 57.1 °F 30.19 in Calm     68% 0.00 in
08:34 68.4 °F 57.8 °F 30.19 in Calm     69% 0.00 in
08:39 68.9 °F 57.5 °F 30.19 in Calm     67% 0.00 in
08:44 69.4 °F 57.6 °F 30.19 in Calm     66% 0.00 in
08:49 70.0 °F 57.3 °F 30.19 in Calm     64% 0.00 in
08:54 70.7 °F 59.2 °F 30.19 in Calm     67% 0.00 in
08:59 71.7 °F 60.2 °F 30.19 in Calm     67% 0.00 in
09:04 72.9 °F 60.9 °F 30.19 in Calm     66% 0.00 in
09:09 73.5 °F 60.1 °F 30.19 in Calm     63% 0.00 in
09:14 73.8 °F 57.1 °F 30.19 in SW 3.0 mph 5.0 mph 56% 0.00 in
09:19 73.5 °F 57.8 °F 30.20 in Calm   5.0 mph 58% 0.00 in
09:24 73.6 °F 56.5 °F 30.20 in Calm   4.0 mph 55% 0.00 in
09:29 73.5 °F 55.3 °F 30.20 in Calm   3.0 mph 53% 0.00 in
09:34 73.8 °F 56.1 °F 30.20 in Calm   1.0 mph 54% 0.00 in
09:39 74.2 °F 54.9 °F 30.20 in Calm   1.0 mph 51% 0.00 in
09:44 74.7 °F 53.7 °F 30.20 in WSW 1.0 mph 5.0 mph 48% 0.00 in
09:50 75.0 °F 56.2 °F 30.20 in Calm   5.0 mph 52% 0.00 in
09:59 75.2 °F 53.6 °F 30.20 in Calm   1.0 mph 47% 0.00 in
10:04 75.9 °F 54.3 °F 30.20 in Calm   1.0 mph 47% 0.00 in
10:09 76.4 °F 55.9 °F 30.20 in SSW 3.0 mph 6.0 mph 49% 0.00 in
10:14 76.5 °F 55.9 °F 30.20 in SW 3.0 mph 6.0 mph 49% 0.00 in
10:19 76.7 °F 57.2 °F 30.20 in Calm   6.0 mph 51% 0.00 in
10:24 76.8 °F 53.9 °F 30.20 in SW 2.0 mph 6.0 mph 45% 0.00 in
10:29 77.3 °F 56.1 °F 30.20 in Calm   6.0 mph 48% 0.00 in
10:34 78.0 °F 55.6 °F 30.20 in Calm   1.0 mph 46% 0.00 in
10:40 78.1 °F 55.1 °F 30.20 in Calm   5.0 mph 45% 0.00 in
10:49 78.9 °F 55.2 °F 30.20 in Calm   1.0 mph 44% 0.00 in
10:54 79.0 °F 55.3 °F 30.20 in SW 2.0 mph 7.0 mph 44% 0.00 in
10:59 78.8 °F 52.5 °F 30.20 in SW 1.0 mph 7.0 mph 40% 0.00 in
11:04 78.9 °F 53.9 °F 30.20 in SSW 1.0 mph 6.0 mph 42% 0.00 in
11:09 79.3 °F 55.5 °F 30.20 in Calm   6.0 mph 44% 0.00 in
11:14 79.9 °F 54.8 °F 30.20 in SW 1.0 mph 5.0 mph 42% 0.00 in
11:19 80.2 °F 54.4 °F 30.20 in SW 2.0 mph 9.0 mph 41% 0.00 in
11:25 80.2 °F 52.3 °F 30.19 in Calm   9.0 mph 38% 0.00 in
11:29 80.2 °F 53.7 °F 30.20 in SW 1.0 mph 8.0 mph 40% 0.00 in
11:34 80.6 °F 54.1 °F 30.19 in WSW 1.0 mph 8.0 mph 40% 0.00 in
11:39 80.8 °F 54.9 °F 30.20 in WSW 1.0 mph 8.0 mph 41% 0.00 in
11:44 81.1 °F 55.9 °F 30.19 in SSW 1.0 mph 7.0 mph 42% 0.00 in
11:49 81.4 °F 55.5 °F 30.19 in SSW 1.0 mph 7.0 mph 41% 0.00 in
11:54 81.4 °F 54.8 °F 30.19 in Calm   8.0 mph 40% 0.00 in
11:59 81.4 °F 52.7 °F 30.19 in WSW 2.0 mph 8.0 mph 37% 0.00 in
12:04 81.7 °F 53.7 °F 30.19 in SSW 1.0 mph 8.0 mph 38% 0.00 in
12:09 82.1 °F 56.1 °F 30.19 in West 1.0 mph 7.0 mph 41% 0.00 in
12:14 82.1 °F 53.3 °F 30.19 in SSW 3.0 mph 12.0 mph 37% 0.00 in
12:19 82.1 °F 52.5 °F 30.19 in WSW 2.0 mph 12.0 mph 36% 0.00 in
12:25 82.0 °F 53.2 °F 30.19 in WSW 3.0 mph 9.0 mph 37% 0.00 in
12:30 82.4 °F 55.0 °F 30.18 in Calm   8.0 mph 39% 0.00 in
12:39 82.9 °F 56.1 °F 30.18 in Calm   10.0 mph 40% 0.00 in
12:44 82.8 °F 53.9 °F 30.18 in SW 2.0 mph 10.0 mph 37% 0.00 in
12:49 82.8 °F 54.6 °F 30.18 in SW 2.0 mph 9.0 mph 38% 0.00 in
12:54 82.8 °F 53.2 °F 30.18 in South 1.0 mph 9.0 mph 36% 0.00 in
12:59 83.0 °F 53.3 °F 30.18 in SW 2.0 mph 8.0 mph 36% 0.00 in
13:04 83.3 °F 55.8 °F 30.18 in Calm   6.0 mph 39% 0.00 in
13:09 83.5 °F 56.0 °F 30.18 in SW 3.0 mph 10.0 mph 39% 0.00 in
13:14 83.5 °F 53.8 °F 30.18 in Calm   10.0 mph 36% 0.00 in
13:19 83.6 °F 56.8 °F 30.18 in Calm   6.0 mph 40% 0.00 in
13:24 83.7 °F 56.9 °F 30.18 in WSW 3.0 mph 7.0 mph 40% 0.00 in
13:29 83.5 °F 59.3 °F 30.18 in West 3.0 mph 8.0 mph 44% 0.00 in
13:34 83.4 °F 57.3 °F 30.17 in West 1.0 mph 8.0 mph 41% 0.00 in
13:39 83.3 °F 56.5 °F 30.17 in SSW 3.0 mph 8.0 mph 40% 0.00 in
13:44 83.4 °F 57.3 °F 30.17 in WSW 3.0 mph 9.0 mph 41% 0.00 in
13:49 83.2 °F 55.0 °F 30.17 in West 2.0 mph 9.0 mph 38% 0.00 in
13:54 83.2 °F 55.7 °F 30.17 in NW 4.0 mph 9.0 mph 39% 0.00 in
13:59 83.1 °F 54.9 °F 30.17 in WSW 4.0 mph 11.0 mph 38% 0.00 in
14:04 83.2 °F 57.1 °F 30.17 in WSW 1.0 mph 11.0 mph 41% 0.00 in
14:09 83.5 °F 54.5 °F 30.17 in Calm   6.0 mph 37% 0.00 in
14:14 83.8 °F 59.6 °F 30.17 in Calm   4.0 mph 44% 0.00 in
14:19 84.4 °F 56.1 °F 30.16 in WSW 1.0 mph 4.0 mph 38% 0.00 in
14:24 84.7 °F 59.1 °F 30.16 in SSW 1.0 mph 6.0 mph 42% 0.00 in
14:30 84.9 °F 55.0 °F 30.16 in Calm   6.0 mph 36% 0.00 in
14:34 84.8 °F 56.4 °F 30.16 in Calm   6.0 mph 38% 0.00 in
14:39 85.1 °F 57.4 °F 30.16 in Calm   5.0 mph 39% 0.00 in
14:45 85.1 °F 55.2 °F 30.16 in WSW 3.0 mph 6.0 mph 36% 0.00 in
14:54 84.8 °F 54.9 °F 30.15 in Calm   7.0 mph 36% 0.00 in
14:59 84.7 °F 56.3 °F 30.15 in WSW 3.0 mph 7.0 mph 38% 0.00 in
15:05 84.5 °F 57.6 °F 30.15 in WNW 2.0 mph 8.0 mph 40% 0.00 in
15:14 84.7 °F 56.3 °F 30.15 in Calm   6.0 mph 38% 0.00 in
15:19 84.8 °F 58.5 °F 30.15 in WNW 1.0 mph 7.0 mph 41% 0.00 in
15:24 84.8 °F 57.8 °F 30.14 in Calm   7.0 mph 40% 0.00 in
15:30 85.2 °F 56.8 °F 30.14 in Calm   6.0 mph 38% 0.00 in
15:39 85.3 °F 53.8 °F 30.14 in Calm   5.0 mph 34% 0.00 in
15:49 85.9 °F 55.9 °F 30.13 in SSW 2.0 mph 7.0 mph 36% 0.00 in
15:55 86.0 °F 58.2 °F 30.13 in Calm   6.0 mph 39% 0.00 in
16:05 86.4 °F 58.6 °F 30.13 in Calm   7.0 mph 39% 0.00 in
16:14 86.3 °F 58.5 °F 30.13 in Calm   5.0 mph 39% 0.00 in
16:19 86.2 °F 55.4 °F 30.13 in Calm   6.0 mph 35% 0.00 in
16:25 86.0 °F 56.7 °F 30.13 in Calm   6.0 mph 37% 0.00 in
16:34 85.5 °F 54.8 °F 30.13 in West 1.0 mph 6.0 mph 35% 0.00 in
16:39 85.4 °F 56.2 °F 30.13 in WNW 2.0 mph 8.0 mph 37% 0.00 in
16:44 85.3 °F 56.1 °F 30.13 in WNW 2.0 mph 8.0 mph 37% 0.00 in
16:50 85.4 °F 55.4 °F 30.12 in Calm   6.0 mph 36% 0.00 in
16:59 84.9 °F 55.0 °F 30.12 in Calm   8.0 mph 36% 0.00 in
17:04 84.8 °F 55.7 °F 30.12 in Calm   8.0 mph 37% 0.00 in
17:09 84.9 °F 55.8 °F 30.12 in SW 1.0 mph 8.0 mph 37% 0.00 in
17:14 84.8 °F 56.4 °F 30.12 in West 1.0 mph 6.0 mph 38% 0.00 in
17:19 84.8 °F 54.9 °F 30.12 in West 1.0 mph 6.0 mph 36% 0.00 in
17:24 84.8 °F 57.1 °F 30.12 in Calm   6.0 mph 39% 0.00 in
17:29 84.9 °F 57.9 °F 30.11 in Calm   4.0 mph 40% 0.00 in
17:34 84.7 °F 57.7 °F 30.12 in SW 1.0 mph 5.0 mph 40% 0.00 in
17:39 84.4 °F 57.5 °F 30.12 in SW 2.0 mph 7.0 mph 40% 0.00 in
17:44 84.1 °F 59.9 °F 30.12 in WSW 1.0 mph 7.0 mph 44% 0.00 in
17:50 83.9 °F 57.0 °F 30.12 in West 3.0 mph 7.0 mph 40% 0.00 in
17:59 83.8 °F 56.9 °F 30.12 in NW 1.0 mph 7.0 mph 40% 0.00 in
18:04 83.6 °F 56.1 °F 30.12 in Calm   5.0 mph 39% 0.00 in
18:09 83.6 °F 58.1 °F 30.12 in Calm   5.0 mph 42% 0.00 in
18:14 83.7 °F 58.9 °F 30.12 in Calm   1.0 mph 43% 0.00 in
18:19 83.6 °F 58.8 °F 30.12 in Calm   3.0 mph 43% 0.00 in
18:24 83.6 °F 58.8 °F 30.12 in Calm   3.0 mph 43% 0.00 in
18:30 83.9 °F 57.7 °F 30.12 in Calm   3.0 mph 41% 0.00 in
18:35 83.7 °F 56.9 °F 30.12 in Calm   4.0 mph 40% 0.00 in
18:44 83.9 °F 60.3 °F 30.12 in Calm   1.0 mph 45% 0.00 in
18:49 83.6 °F 56.8 °F 30.12 in SSW 1.0 mph 4.0 mph 40% 0.00 in
18:54 83.0 °F 58.9 °F 30.11 in Calm   4.0 mph 44% 0.00 in
18:59 82.8 °F 57.4 °F 30.12 in Calm   1.0 mph 42% 0.00 in
19:04 82.4 °F 57.7 °F 30.12 in Calm     43% 0.00 in
19:09 81.8 °F 61.9 °F 30.12 in Calm     51% 0.00 in
19:14 80.6 °F 60.3 °F 30.12 in Calm     50% 0.00 in
19:19 79.4 °F 59.2 °F 30.12 in Calm   1.0 mph 50% 0.00 in
19:25 78.5 °F 58.9 °F 30.12 in Calm   1.0 mph 51% 0.00 in
19:34 76.6 °F 58.7 °F 30.12 in Calm     54% 0.00 in
19:39 75.6 °F 58.8 °F 30.12 in Calm     56% 0.00 in
19:44 74.8 °F 58.6 °F 30.12 in Calm     57% 0.00 in
19:49 74.0 °F 58.3 °F 30.12 in Calm     58% 0.00 in
19:54 73.3 °F 57.2 °F 30.12 in Calm     57% 0.00 in
19:59 72.8 °F 57.2 °F 30.12 in Calm     58% 0.00 in
20:04 72.3 °F 57.2 °F 30.12 in Calm     59% 0.00 in
20:09 71.8 °F 56.7 °F 30.12 in Calm     59% 0.00 in
20:14 71.4 °F 56.3 °F 30.12 in Calm     59% 0.00 in
20:19 71.0 °F 56.4 °F 30.12 in Calm   1.0 mph 60% 0.00 in
20:24 70.8 °F 56.2 °F 30.13 in Calm   1.0 mph 60% 0.00 in
20:29 70.5 °F 56.9 °F 30.13 in Calm   1.0 mph 62% 0.00 in
20:35 69.8 °F 56.2 °F 30.13 in Calm     62% 0.00 in
20:45 68.5 °F 56.3 °F 30.13 in Calm     65% 0.00 in
20:50 68.1 °F 55.9 °F 30.13 in Calm   1.0 mph 65% 0.00 in
20:59 67.3 °F 56.4 °F 30.13 in Calm   1.0 mph 68% 0.00 in
21:04 66.7 °F 56.6 °F 30.13 in Calm     70% 0.00 in
21:09 66.0 °F 55.9 °F 30.13 in Calm     70% 0.00 in
21:14 65.4 °F 55.8 °F 30.13 in Calm     71% 0.00 in
21:20 65.2 °F 55.6 °F 30.14 in Calm     71% 0.00 in
21:25 65.0 °F 55.0 °F 30.14 in Calm   1.0 mph 70% 0.00 in
21:34 65.7 °F 54.9 °F 30.14 in Calm   1.0 mph 68% 0.00 in
21:39 66.3 °F 54.6 °F 30.14 in Calm   1.0 mph 66% 0.00 in
21:44 66.8 °F 54.7 °F 30.14 in Calm   1.0 mph 65% 0.00 in
21:49 67.6 °F 54.6 °F 30.14 in SSW 1.0 mph 5.0 mph 63% 0.00 in
21:54 68.4 °F 54.0 °F 30.14 in SSE 1.0 mph 5.0 mph 60% 0.00 in
21:59 69.5 °F 53.6 °F 30.14 in South 1.0 mph 5.0 mph 57% 0.00 in
22:04 70.4 °F 53.5 °F 30.14 in South 1.0 mph 6.0 mph 55% 0.00 in
22:09 71.2 °F 53.7 °F 30.14 in SSE 1.0 mph 6.0 mph 54% 0.00 in
22:14 71.4 °F 54.4 °F 30.14 in South 1.0 mph 6.0 mph 55% 0.00 in
22:19 70.8 °F 54.8 °F 30.14 in Calm   5.0 mph 57% 0.00 in
22:24 69.9 °F 54.9 °F 30.14 in Calm   1.0 mph 59% 0.00 in
22:29 69.2 °F 54.3 °F 30.14 in Calm   1.0 mph 59% 0.00 in
22:34 68.4 °F 54.4 °F 30.14 in Calm   1.0 mph 61% 0.00 in
22:39 67.5 °F 54.0 °F 30.14 in Calm     62% 0.00 in
22:44 66.8 °F 53.8 °F 30.14 in Calm     63% 0.00 in
22:49 66.2 °F 54.1 °F 30.14 in Calm     65% 0.00 in
22:54 65.6 °F 53.9 °F 30.14 in Calm     66% 0.00 in
22:59 64.9 °F 53.7 °F 30.14 in Calm     67% 0.00 in
23:04 64.2 °F 53.8 °F 30.14 in Calm   1.0 mph 69% 0.00 in
23:09 64.0 °F 53.2 °F 30.14 in Calm   9.0 mph 68% 0.00 in
23:14 64.5 °F 52.9 °F 30.14 in SW 1.0 mph 9.0 mph 66% 0.00 in
23:19 65.4 °F 53.3 °F 30.14 in Calm   5.0 mph 65% 0.00 in
23:25 66.0 °F 53.5 °F 30.14 in Calm   4.0 mph 64% 0.00 in
23:34 66.0 °F 53.9 °F 30.14 in Calm   4.0 mph 65% 0.00 in
23:39 65.8 °F 53.7 °F 30.14 in South 1.0 mph 4.0 mph 65% 0.00 in
23:49 65.2 °F 53.6 °F 30.14 in Calm   2.0 mph 66% 0.00 in
23:54 64.8 °F 53.6 °F 30.14 in Calm   2.0 mph 67% 0.00 in
23:59 64.4 °F 53.6 °F 30.14 in Calm   1.0 mph 68% 0.00 in
Westford Weather
Compliments of Weather Underground

 
 
Current Radar Loop:

Copyright © WestfordWeather.net 2007-2014. All rights reserved.